sensor_id;sensor_type;location;lat;lon;timestamp;pressure;altitude;pressure_sealevel;temperature;humidity
20616;BME280;10467;42.338;23.552;2022-08-01T00:00:41;90908.56;;;15.76;100.00
20616;BME280;10467;42.338;23.552;2022-08-01T00:03:06;90908.81;;;15.71;100.00
20616;BME280;10467;42.338;23.552;2022-08-01T00:05:32;90913.31;;;15.67;100.00
20616;BME280;10467;42.338;23.552;2022-08-01T00:07:58;90918.22;;;15.65;100.00
20616;BME280;10467;42.338;23.552;2022-08-01T00:10:23;90914.50;;;15.57;100.00
20616;BME280;10467;42.338;23.552;2022-08-01T00:12:49;90916.34;;;15.66;100.00
20616;BME280;10467;42.338;23.552;2022-08-01T00:15:16;90912.44;;;15.63;100.00
20616;BME280;10467;42.338;23.552;2022-08-01T00:17:42;90910.63;;;15.55;100.00
20616;BME280;10467;42.338;23.552;2022-08-01T00:20:11;90906.84;;;15.44;100.00
20616;BME280;10467;42.338;23.552;2022-08-01T00:22:37;90914.25;;;15.35;100.00
20616;BME280;10467;42.338;23.552;2022-08-01T00:25:03;90908.22;;;15.25;100.00
20616;BME280;10467;42.338;23.552;2022-08-01T00:27:29;90914.94;;;15.19;100.00
20616;BME280;10467;42.338;23.552;2022-08-01T00:29:55;90912.91;;;15.16;100.00
20616;BME280;10467;42.338;23.552;2022-08-01T00:32:20;90910.44;;;15.11;100.00
20616;BME280;10467;42.338;23.552;2022-08-01T00:34:46;90911.13;;;15.20;100.00
20616;BME280;10467;42.338;23.552;2022-08-01T00:37:11;90914.94;;;15.19;100.00
20616;BME280;10467;42.338;23.552;2022-08-01T00:39:37;90904.31;;;15.11;100.00
20616;BME280;10467;42.338;23.552;2022-08-01T00:42:06;90913.59;;;15.01;100.00
20616;BME280;10467;42.338;23.552;2022-08-01T00:44:32;90908.56;;;14.87;100.00
20616;BME280;10467;42.338;23.552;2022-08-01T00:46:58;90905.78;;;14.84;100.00
20616;BME280;10467;42.338;23.552;2022-08-01T00:49:23;90905.97;;;14.79;100.00
20616;BME280;10467;42.338;23.552;2022-08-01T00:51:48;90905.44;;;14.73;100.00
20616;BME280;10467;42.338;23.552;2022-08-01T00:54:15;90908.78;;;14.70;100.00
20616;BME280;10467;42.338;23.552;2022-08-01T00:56:41;90907.44;;;14.76;100.00
20616;BME280;10467;42.338;23.552;2022-08-01T00:59:07;90902.50;;;14.66;100.00
20616;BME280;10467;42.338;23.552;2022-08-01T01:01:32;90907.53;;;14.55;100.00
20616;BME280;10467;42.338;23.552;2022-08-01T01:03:58;90888.88;;;14.47;100.00
20616;BME280;10467;42.338;23.552;2022-08-01T01:06:50;90895.44;;;14.37;100.00
20616;BME280;10467;42.338;23.552;2022-08-01T01:09:39;90891.63;;;14.26;100.00
20616;BME280;10467;42.338;23.552;2022-08-01T01:15:33;90890.25;;;14.20;100.00
20616;BME280;10467;42.338;23.552;2022-08-01T01:18:12;90881.66;;;14.14;100.00
20616;BME280;10467;42.338;23.552;2022-08-01T01:20:42;90882.66;;;14.09;100.00
20616;BME280;10467;42.338;23.552;2022-08-01T01:23:32;90886.34;;;14.05;100.00
20616;BME280;10467;42.338;23.552;2022-08-01T01:29:05;90891.97;;;14.03;100.00
20616;BME280;10467;42.338;23.552;2022-08-01T01:31:59;90885.75;;;13.99;100.00
20616;BME280;10467;42.338;23.552;2022-08-01T01:34:27;90884.38;;;13.93;100.00
20616;BME280;10467;42.338;23.552;2022-08-01T01:36:54;90882.63;;;13.97;100.00
20616;BME280;10467;42.338;23.552;2022-08-01T01:39:24;90875.91;;;13.91;100.00
20616;BME280;10467;42.338;23.552;2022-08-01T01:41:51;90879.72;;;13.90;100.00
20616;BME280;10467;42.338;23.552;2022-08-01T01:44:18;90878.16;;;13.89;100.00
20616;BME280;10467;42.338;23.552;2022-08-01T01:46:45;90872.81;;;13.89;100.00
20616;BME280;10467;42.338;23.552;2022-08-01T01:49:12;90881.13;;;13.88;100.00
20616;BME280;10467;42.338;23.552;2022-08-01T01:51:39;90880.03;;;13.89;100.00
20616;BME280;10467;42.338;23.552;2022-08-01T01:54:08;90868.88;;;13.87;100.00
20616;BME280;10467;42.338;23.552;2022-08-01T01:56:35;90886.47;;;13.88;100.00
20616;BME280;10467;42.338;23.552;2022-08-01T01:59:16;90872.16;;;13.71;100.00
20616;BME280;10467;42.338;23.552;2022-08-01T02:01:43;90882.94;;;13.63;100.00
20616;BME280;10467;42.338;23.552;2022-08-01T02:04:11;90878.88;;;13.57;100.00
20616;BME280;10467;42.338;23.552;2022-08-01T02:06:38;90886.00;;;13.53;100.00
20616;BME280;10467;42.338;23.552;2022-08-01T02:09:05;90884.84;;;13.41;100.00
20616;BME280;10467;42.338;23.552;2022-08-01T02:11:32;90888.16;;;13.38;100.00
20616;BME280;10467;42.338;23.552;2022-08-01T02:14:01;90880.47;;;13.37;100.00
20616;BME280;10467;42.338;23.552;2022-08-01T02:16:29;90882.03;;;13.38;100.00
20616;BME280;10467;42.338;23.552;2022-08-01T02:18:57;90886.88;;;13.44;100.00
20616;BME280;10467;42.338;23.552;2022-08-01T02:21:51;90883.91;;;13.37;100.00
20616;BME280;10467;42.338;23.552;2022-08-01T02:27:15;90884.50;;;13.22;100.00
20616;BME280;10467;42.338;23.552;2022-08-01T02:29:47;90875.03;;;13.25;100.00
20616;BME280;10467;42.338;23.552;2022-08-01T02:32:23;90870.97;;;13.27;100.00
20616;BME280;10467;42.338;23.552;2022-08-01T02:34:51;90864.22;;;13.21;100.00
20616;BME280;10467;42.338;23.552;2022-08-01T02:37:19;90871.31;;;13.17;100.00
20616;BME280;10467;42.338;23.552;2022-08-01T02:39:48;90871.78;;;13.19;100.00
20616;BME280;10467;42.338;23.552;2022-08-01T02:42:18;90867.56;;;13.18;100.00
20616;BME280;10467;42.338;23.552;2022-08-01T02:44:46;90873.34;;;13.20;100.00
20616;BME280;10467;42.338;23.552;2022-08-01T02:47:12;90874.59;;;13.23;100.00
20616;BME280;10467;42.338;23.552;2022-08-01T02:49:47;90867.06;;;13.16;100.00
20616;BME280;10467;42.338;23.552;2022-08-01T02:52:15;90863.94;;;13.14;100.00
20616;BME280;10467;42.338;23.552;2022-08-01T02:54:43;90860.63;;;13.17;100.00
20616;BME280;10467;42.338;23.552;2022-08-01T02:57:12;90863.78;;;13.19;100.00
20616;BME280;10467;42.338;23.552;2022-08-01T02:59:40;90870.22;;;13.18;100.00
20616;BME280;10467;42.338;23.552;2022-08-01T03:02:07;90856.41;;;13.16;100.00
20616;BME280;10467;42.338;23.552;2022-08-01T03:04:35;90862.84;;;13.15;100.00
20616;BME280;10467;42.338;23.552;2022-08-01T03:07:04;90860.81;;;13.12;100.00
20616;BME280;10467;42.338;23.552;2022-08-01T03:09:39;90872.41;;;13.16;100.00
20616;BME280;10467;42.338;23.552;2022-08-01T03:12:11;90868.69;;;13.08;100.00
20616;BME280;10467;42.338;23.552;2022-08-01T03:14:39;90871.84;;;13.10;100.00
20616;BME280;10467;42.338;23.552;2022-08-01T03:17:06;90866.75;;;12.97;100.00
20616;BME280;10467;42.338;23.552;2022-08-01T03:19:33;90872.53;;;12.99;100.00
20616;BME280;10467;42.338;23.552;2022-08-01T03:22:01;90862.84;;;12.94;100.00
20616;BME280;10467;42.338;23.552;2022-08-01T03:24:28;90864.88;;;12.88;100.00
20616;BME280;10467;42.338;23.552;2022-08-01T03:26:56;90860.19;;;12.85;100.00
20616;BME280;10467;42.338;23.552;2022-08-01T03:29:25;90863.78;;;12.89;100.00
20616;BME280;10467;42.338;23.552;2022-08-01T03:31:51;90861.44;;;12.88;100.00
20616;BME280;10467;42.338;23.552;2022-08-01T03:34:18;90855.50;;;12.82;100.00
20616;BME280;10467;42.338;23.552;2022-08-01T03:36:49;90868.47;;;12.93;100.00
20616;BME280;10467;42.338;23.552;2022-08-01T03:39:16;90862.19;;;12.97;100.00
20616;BME280;10467;42.338;23.552;2022-08-01T03:41:48;90871.88;;;13.02;100.00
20616;BME280;10467;42.338;23.552;2022-08-01T03:44:17;90869.94;;;13.11;100.00
20616;BME280;10467;42.338;23.552;2022-08-01T03:46:46;90867.72;;;13.13;100.00
20616;BME280;10467;42.338;23.552;2022-08-01T03:49:19;90861.56;;;13.21;100.00
20616;BME280;10467;42.338;23.552;2022-08-01T03:51:48;90866.97;;;13.33;100.00
20616;BME280;10467;42.338;23.552;2022-08-01T03:54:17;90867.56;;;13.39;100.00
20616;BME280;10467;42.338;23.552;2022-08-01T03:56:47;90866.44;;;13.40;100.00
20616;BME280;10467;42.338;23.552;2022-08-01T03:59:16;90860.38;;;13.52;100.00
20616;BME280;10467;42.338;23.552;2022-08-01T04:01:43;90870.41;;;13.55;100.00
20616;BME280;10467;42.338;23.552;2022-08-01T04:04:09;90857.97;;;13.59;100.00
20616;BME280;10467;42.338;23.552;2022-08-01T04:06:38;90857.09;;;13.67;100.00
20616;BME280;10467;42.338;23.552;2022-08-01T04:09:03;90861.34;;;13.68;100.00
20616;BME280;10467;42.338;23.552;2022-08-01T04:12:02;90870.53;;;13.79;100.00
20616;BME280;10467;42.338;23.552;2022-08-01T04:14:28;90865.63;;;13.81;100.00
20616;BME280;10467;42.338;23.552;2022-08-01T04:16:54;90865.84;;;13.88;100.00
20616;BME280;10467;42.338;23.552;2022-08-01T04:19:20;90869.47;;;13.92;100.00
20616;BME280;10467;42.338;23.552;2022-08-01T04:21:46;90864.56;;;13.94;100.00
20616;BME280;10467;42.338;23.552;2022-08-01T04:24:17;90867.72;;;14.08;100.00
20616;BME280;10467;42.338;23.552;2022-08-01T04:26:45;90864.81;;;14.14;100.00
20616;BME280;10467;42.338;23.552;2022-08-01T04:29:12;90875.44;;;14.34;100.00
20616;BME280;10467;42.338;23.552;2022-08-01T04:31:42;90868.44;;;14.42;100.00
20616;BME280;10467;42.338;23.552;2022-08-01T04:34:11;90872.81;;;14.47;100.00
20616;BME280;10467;42.338;23.552;2022-08-01T04:36:38;90877.09;;;14.60;100.00
20616;BME280;10467;42.338;23.552;2022-08-01T04:39:07;90883.69;;;14.75;100.00
20616;BME280;10467;42.338;23.552;2022-08-01T04:41:36;90875.75;;;14.78;100.00
20616;BME280;10467;42.338;23.552;2022-08-01T04:44:01;90868.63;;;14.70;100.00
20616;BME280;10467;42.338;23.552;2022-08-01T04:46:29;90873.84;;;14.79;100.00
20616;BME280;10467;42.338;23.552;2022-08-01T04:48:55;90873.31;;;14.85;100.00
20616;BME280;10467;42.338;23.552;2022-08-01T04:51:21;90872.06;;;14.95;100.00
20616;BME280;10467;42.338;23.552;2022-08-01T04:53:50;90875.41;;;15.04;100.00
20616;BME280;10467;42.338;23.552;2022-08-01T04:56:19;90880.97;;;15.11;100.00
20616;BME280;10467;42.338;23.552;2022-08-01T04:58:46;90890.03;;;15.19;100.00
20616;BME280;10467;42.338;23.552;2022-08-01T05:01:11;90877.16;;;15.24;100.00
20616;BME280;10467;42.338;23.552;2022-08-01T05:03:37;90873.44;;;15.41;100.00
20616;BME280;10467;42.338;23.552;2022-08-01T05:06:03;90868.84;;;15.54;100.00
20616;BME280;10467;42.338;23.552;2022-08-01T05:08:28;90860.09;;;15.69;100.00
20616;BME280;10467;42.338;23.552;2022-08-01T05:10:54;90860.34;;;15.92;100.00
20616;BME280;10467;42.338;23.552;2022-08-01T05:13:20;90856.78;;;16.16;100.00
20616;BME280;10467;42.338;23.552;2022-08-01T05:15:46;90865.91;;;16.43;100.00
20616;BME280;10467;42.338;23.552;2022-08-01T05:18:11;90856.94;;;16.67;100.00
20616;BME280;10467;42.338;23.552;2022-08-01T05:20:37;90867.50;;;16.91;100.00
20616;BME280;10467;42.338;23.552;2022-08-01T05:23:04;90869.78;;;17.24;100.00
20616;BME280;10467;42.338;23.552;2022-08-01T05:25:29;90863.13;;;18.50;91.07
20616;BME280;10467;42.338;23.552;2022-08-01T05:27:55;90864.09;;;22.00;68.73
20616;BME280;10467;42.338;23.552;2022-08-01T05:30:21;90861.41;;;24.78;56.56
20616;BME280;10467;42.338;23.552;2022-08-01T05:32:46;90868.97;;;27.10;48.70
20616;BME280;10467;42.338;23.552;2022-08-01T05:35:12;90870.81;;;28.38;45.50
20616;BME280;10467;42.338;23.552;2022-08-01T05:37:37;90869.44;;;28.69;44.05
20616;BME280;10467;42.338;23.552;2022-08-01T05:40:03;90873.19;;;30.32;40.98
20616;BME280;10467;42.338;23.552;2022-08-01T05:42:29;90875.88;;;30.65;39.81
20616;BME280;10467;42.338;23.552;2022-08-01T05:44:55;90871.22;;;30.91;38.26
20616;BME280;10467;42.338;23.552;2022-08-01T05:47:20;90873.88;;;31.62;37.67
20616;BME280;10467;42.338;23.552;2022-08-01T05:49:46;90873.22;;;30.16;39.18
20616;BME280;10467;42.338;23.552;2022-08-01T05:52:11;90866.53;;;30.01;39.83
20616;BME280;10467;42.338;23.552;2022-08-01T05:54:37;90873.22;;;30.45;40.30
20616;BME280;10467;42.338;23.552;2022-08-01T05:57:03;90879.72;;;30.96;37.82
20616;BME280;10467;42.338;23.552;2022-08-01T05:59:29;90883.47;;;31.15;37.26
20616;BME280;10467;42.338;23.552;2022-08-01T06:01:55;90876.81;;;31.54;36.21
20616;BME280;10467;42.338;23.552;2022-08-01T06:04:21;90878.13;;;32.01;35.83
20616;BME280;10467;42.338;23.552;2022-08-01T06:06:47;90881.13;;;31.81;36.46
20616;BME280;10467;42.338;23.552;2022-08-01T06:09:12;90872.09;;;30.30;37.04
20616;BME280;10467;42.338;23.552;2022-08-01T06:11:38;90870.22;;;31.65;33.76
20616;BME280;10467;42.338;23.552;2022-08-01T06:14:03;90853.72;;;31.52;34.39
20616;BME280;10467;42.338;23.552;2022-08-01T06:16:29;90875.78;;;30.68;34.96
20616;BME280;10467;42.338;23.552;2022-08-01T06:18:54;90871.75;;;31.27;35.86
20616;BME280;10467;42.338;23.552;2022-08-01T06:21:20;90872.09;;;30.88;34.25
20616;BME280;10467;42.338;23.552;2022-08-01T06:23:45;90874.31;;;30.02;34.93
20616;BME280;10467;42.338;23.552;2022-08-01T06:26:11;90872.69;;;29.04;37.16
20616;BME280;10467;42.338;23.552;2022-08-01T06:28:37;90864.22;;;29.83;36.67
20616;BME280;10467;42.338;23.552;2022-08-01T06:31:04;90866.44;;;30.21;35.12
20616;BME280;10467;42.338;23.552;2022-08-01T06:33:29;90864.59;;;30.47;34.60
20616;BME280;10467;42.338;23.552;2022-08-01T06:35:55;90868.34;;;31.23;34.20
20616;BME280;10467;42.338;23.552;2022-08-01T06:38:21;90861.75;;;30.92;34.17
20616;BME280;10467;42.338;23.552;2022-08-01T06:40:46;90869.69;;;31.82;32.74
20616;BME280;10467;42.338;23.552;2022-08-01T06:43:12;90868.13;;;31.31;33.70
20616;BME280;10467;42.338;23.552;2022-08-01T06:45:41;90862.63;;;29.33;35.95
20616;BME280;10467;42.338;23.552;2022-08-01T06:48:06;90868.75;;;30.67;34.75
20616;BME280;10467;42.338;23.552;2022-08-01T06:50:32;90866.91;;;28.78;37.36
20616;BME280;10467;42.338;23.552;2022-08-01T06:52:58;90857.72;;;28.69;37.89
20616;BME280;10467;42.338;23.552;2022-08-01T06:55:23;90867.69;;;28.99;37.45
20616;BME280;10467;42.338;23.552;2022-08-01T06:57:51;90872.03;;;29.32;38.06
20616;BME280;10467;42.338;23.552;2022-08-01T07:00:18;90856.97;;;29.40;37.64
20616;BME280;10467;42.338;23.552;2022-08-01T07:02:48;90853.25;;;29.99;35.60
20616;BME280;10467;42.338;23.552;2022-08-01T07:05:14;90852.75;;;29.56;36.76
20616;BME280;10467;42.338;23.552;2022-08-01T07:07:39;90864.44;;;28.01;38.44
20616;BME280;10467;42.338;23.552;2022-08-01T07:10:05;90862.13;;;28.82;37.84
20616;BME280;10467;42.338;23.552;2022-08-01T07:12:31;90856.25;;;30.50;35.13
20616;BME280;10467;42.338;23.552;2022-08-01T07:14:58;90854.03;;;30.74;35.79
20616;BME280;10467;42.338;23.552;2022-08-01T07:17:23;90852.63;;;31.49;35.05
20616;BME280;10467;42.338;23.552;2022-08-01T07:19:49;90855.50;;;29.72;36.07
20616;BME280;10467;42.338;23.552;2022-08-01T07:22:14;90858.13;;;29.59;36.28
20616;BME280;10467;42.338;23.552;2022-08-01T07:24:41;90854.44;;;29.82;35.62
20616;BME280;10467;42.338;23.552;2022-08-01T07:27:07;90861.44;;;30.32;36.21
20616;BME280;10467;42.338;23.552;2022-08-01T07:29:32;90854.00;;;30.61;36.08
20616;BME280;10467;42.338;23.552;2022-08-01T07:31:57;90850.91;;;31.01;34.92
20616;BME280;10467;42.338;23.552;2022-08-01T07:34:24;90870.94;;;32.63;33.18
20616;BME280;10467;42.338;23.552;2022-08-01T07:36:50;90853.50;;;32.66;33.02
20616;BME280;10467;42.338;23.552;2022-08-01T07:39:16;90862.41;;;31.25;34.86
20616;BME280;10467;42.338;23.552;2022-08-01T07:41:42;90855.63;;;30.30;36.14
20616;BME280;10467;42.338;23.552;2022-08-01T07:44:07;90852.28;;;30.67;35.52
20616;BME280;10467;42.338;23.552;2022-08-01T07:46:33;90850.84;;;31.55;34.68
20616;BME280;10467;42.338;23.552;2022-08-01T07:48:58;90853.50;;;31.97;35.02
20616;BME280;10467;42.338;23.552;2022-08-01T07:51:24;90843.84;;;29.68;36.67
20616;BME280;10467;42.338;23.552;2022-08-01T07:53:49;90846.13;;;31.18;34.65
20616;BME280;10467;42.338;23.552;2022-08-01T07:56:15;90844.75;;;30.97;35.53
20616;BME280;10467;42.338;23.552;2022-08-01T07:58:40;90845.19;;;32.35;35.27
20616;BME280;10467;42.338;23.552;2022-08-01T08:01:06;90847.97;;;30.37;36.01
20616;BME280;10467;42.338;23.552;2022-08-01T08:03:31;90852.91;;;29.81;37.36
20616;BME280;10467;42.338;23.552;2022-08-01T08:05:57;90842.06;;;30.23;35.84
20616;BME280;10467;42.338;23.552;2022-08-01T08:08:22;90839.72;;;31.72;35.51
20616;BME280;10467;42.338;23.552;2022-08-01T08:10:49;90848.00;;;31.84;34.39
20616;BME280;10467;42.338;23.552;2022-08-01T08:13:14;90843.94;;;31.51;34.23
20616;BME280;10467;42.338;23.552;2022-08-01T08:15:39;90842.94;;;31.19;35.62
20616;BME280;10467;42.338;23.552;2022-08-01T08:18:05;90838.16;;;30.94;35.28
20616;BME280;10467;42.338;23.552;2022-08-01T08:20:31;90845.97;;;29.76;37.41
20616;BME280;10467;42.338;23.552;2022-08-01T08:22:56;90848.53;;;30.74;35.22
20616;BME280;10467;42.338;23.552;2022-08-01T08:25:24;90837.81;;;30.05;36.71
20616;BME280;10467;42.338;23.552;2022-08-01T08:27:50;90848.00;;;30.50;35.88
20616;BME280;10467;42.338;23.552;2022-08-01T08:30:15;90839.09;;;29.36;37.41
20616;BME280;10467;42.338;23.552;2022-08-01T08:32:41;90843.03;;;30.74;36.90
20616;BME280;10467;42.338;23.552;2022-08-01T08:35:07;90843.06;;;31.28;35.65
20616;BME280;10467;42.338;23.552;2022-08-01T08:37:34;90840.84;;;31.23;36.28
20616;BME280;10467;42.338;23.552;2022-08-01T08:40:01;90835.16;;;31.43;35.07
20616;BME280;10467;42.338;23.552;2022-08-01T08:42:26;90846.75;;;31.09;35.70
20616;BME280;10467;42.338;23.552;2022-08-01T08:44:52;90848.63;;;30.41;36.13
20616;BME280;10467;42.338;23.552;2022-08-01T08:47:21;90847.88;;;32.70;34.13
20616;BME280;10467;42.338;23.552;2022-08-01T08:49:50;90842.78;;;29.94;36.98
20616;BME280;10467;42.338;23.552;2022-08-01T08:52:18;90851.75;;;28.54;40.11
20616;BME280;10467;42.338;23.552;2022-08-01T08:54:45;90828.72;;;30.08;38.45
20616;BME280;10467;42.338;23.552;2022-08-01T08:57:13;90846.00;;;28.68;39.64
20616;BME280;10467;42.338;23.552;2022-08-01T08:59:39;90836.25;;;26.46;42.48
20616;BME280;10467;42.338;23.552;2022-08-01T09:02:07;90848.78;;;27.04;43.24
20616;BME280;10467;42.338;23.552;2022-08-01T09:04:32;90828.84;;;27.07;41.64
20616;BME280;10467;42.338;23.552;2022-08-01T09:06:58;90835.47;;;27.06;41.62
20616;BME280;10467;42.338;23.552;2022-08-01T09:09:23;90828.50;;;27.79;39.99
20616;BME280;10467;42.338;23.552;2022-08-01T09:11:49;90834.03;;;25.06;45.41
20616;BME280;10467;42.338;23.552;2022-08-01T09:14:17;90836.03;;;24.15;48.06
20616;BME280;10467;42.338;23.552;2022-08-01T09:19:38;90831.47;;;24.74;47.61
20616;BME280;10467;42.338;23.552;2022-08-01T09:22:07;90829.59;;;27.35;42.00
20616;BME280;10467;42.338;23.552;2022-08-01T09:24:33;90837.78;;;28.05;40.14
20616;BME280;10467;42.338;23.552;2022-08-01T09:27:00;90822.59;;;27.34;41.43
20616;BME280;10467;42.338;23.552;2022-08-01T09:29:29;90813.31;;;25.68;44.76
20616;BME280;10467;42.338;23.552;2022-08-01T09:31:55;90835.47;;;28.27;41.48
20616;BME280;10467;42.338;23.552;2022-08-01T09:34:31;90836.91;;;28.12;41.70
20616;BME280;10467;42.338;23.552;2022-08-01T09:36:59;90830.41;;;30.64;38.95
20616;BME280;10467;42.338;23.552;2022-08-01T09:39:26;90840.09;;;31.36;36.63
20616;BME280;10467;42.338;23.552;2022-08-01T09:41:56;90829.00;;;31.77;35.39
20616;BME280;10467;42.338;23.552;2022-08-01T09:44:42;90830.25;;;31.98;35.56
20616;BME280;10467;42.338;23.552;2022-08-01T09:47:08;90815.66;;;31.88;36.21
20616;BME280;10467;42.338;23.552;2022-08-01T09:49:38;90815.16;;;32.03;35.60
20616;BME280;10467;42.338;23.552;2022-08-01T09:52:14;90812.97;;;30.54;37.33
20616;BME280;10467;42.338;23.552;2022-08-01T09:54:42;90818.63;;;30.34;37.56
20616;BME280;10467;42.338;23.552;2022-08-01T09:57:15;90822.91;;;29.90;39.85
20616;BME280;10467;42.338;23.552;2022-08-01T09:59:43;90816.91;;;30.69;37.57
20616;BME280;10467;42.338;23.552;2022-08-01T10:02:14;90810.31;;;30.38;38.16
20616;BME280;10467;42.338;23.552;2022-08-01T10:04:50;90817.00;;;28.71;39.45
20616;BME280;10467;42.338;23.552;2022-08-01T10:07:17;90822.13;;;28.09;40.97
20616;BME280;10467;42.338;23.552;2022-08-01T10:09:43;90801.03;;;26.24;43.98
20616;BME280;10467;42.338;23.552;2022-08-01T10:12:11;90813.72;;;26.72;43.96
20616;BME280;10467;42.338;23.552;2022-08-01T10:14:38;90812.56;;;30.27;39.37
20616;BME280;10467;42.338;23.552;2022-08-01T10:17:07;90807.97;;;31.58;36.34
20616;BME280;10467;42.338;23.552;2022-08-01T10:19:34;90817.34;;;30.68;38.16
20616;BME280;10467;42.338;23.552;2022-08-01T10:22:01;90809.44;;;31.24;37.08
20616;BME280;10467;42.338;23.552;2022-08-01T10:24:29;90815.00;;;31.21;37.38
20616;BME280;10467;42.338;23.552;2022-08-01T10:26:58;90811.28;;;29.54;40.30
20616;BME280;10467;42.338;23.552;2022-08-01T10:29:27;90818.47;;;28.55;40.35
20616;BME280;10467;42.338;23.552;2022-08-01T10:31:55;90806.41;;;30.93;36.34
20616;BME280;10467;42.338;23.552;2022-08-01T10:34:20;90799.28;;;29.47;39.12
20616;BME280;10467;42.338;23.552;2022-08-01T10:36:48;90796.75;;;27.38;40.75
20616;BME280;10467;42.338;23.552;2022-08-01T10:39:45;90803.34;;;25.51;45.41
20616;BME280;10467;42.338;23.552;2022-08-01T10:42:11;90804.03;;;27.45;42.44
20616;BME280;10467;42.338;23.552;2022-08-01T10:44:38;90807.63;;;28.09;41.02
20616;BME280;10467;42.338;23.552;2022-08-01T10:47:08;90812.50;;;27.31;42.39
20616;BME280;10467;42.338;23.552;2022-08-01T10:49:38;90798.72;;;27.85;42.24
20616;BME280;10467;42.338;23.552;2022-08-01T10:52:06;90800.59;;;31.17;37.01
20616;BME280;10467;42.338;23.552;2022-08-01T10:54:38;90796.81;;;32.34;34.48
20616;BME280;10467;42.338;23.552;2022-08-01T10:57:04;90803.13;;;33.72;33.01
20616;BME280;10467;42.338;23.552;2022-08-01T10:59:32;90796.47;;;32.32;34.73
20616;BME280;10467;42.338;23.552;2022-08-01T11:02:03;90798.59;;;31.68;37.09
20616;BME280;10467;42.338;23.552;2022-08-01T11:07:48;90800.22;;;33.04;33.35
20616;BME280;10467;42.338;23.552;2022-08-01T11:10:39;90804.28;;;33.21;33.28
20616;BME280;10467;42.338;23.552;2022-08-01T11:13:05;90794.47;;;34.01;33.93
20616;BME280;10467;42.338;23.552;2022-08-01T11:15:34;90793.59;;;34.68;31.95
20616;BME280;10467;42.338;23.552;2022-08-01T11:18:28;90799.47;;;31.91;35.20
20616;BME280;10467;42.338;23.552;2022-08-01T11:20:59;90800.91;;;30.23;37.38
20616;BME280;10467;42.338;23.552;2022-08-01T11:23:27;90781.75;;;29.90;39.23
20616;BME280;10467;42.338;23.552;2022-08-01T11:28:20;90772.16;;;29.01;39.84
20616;BME280;10467;42.338;23.552;2022-08-01T11:46:55;90766.84;;;32.36;33.09
20616;BME280;10467;42.338;23.552;2022-08-01T11:49:27;90757.72;;;30.10;37.98
20616;BME280;10467;42.338;23.552;2022-08-01T11:52:13;90766.28;;;32.07;34.04
20616;BME280;10467;42.338;23.552;2022-08-01T11:57:30;90763.03;;;31.86;34.81
20616;BME280;10467;42.338;23.552;2022-08-01T11:59:57;90757.72;;;32.27;34.62
20616;BME280;10467;42.338;23.552;2022-08-01T12:02:28;90750.38;;;33.29;33.84
20616;BME280;10467;42.338;23.552;2022-08-01T12:04:56;90752.81;;;32.87;33.12
20616;BME280;10467;42.338;23.552;2022-08-01T12:07:23;90759.13;;;31.62;35.75
20616;BME280;10467;42.338;23.552;2022-08-01T12:10:02;90756.25;;;32.13;35.49
20616;BME280;10467;42.338;23.552;2022-08-01T12:12:29;90753.50;;;32.78;33.31
20616;BME280;10467;42.338;23.552;2022-08-01T12:14:56;90753.00;;;31.33;35.59
20616;BME280;10467;42.338;23.552;2022-08-01T12:18:02;90757.94;;;31.50;37.33
20616;BME280;10467;42.338;23.552;2022-08-01T12:23:01;90746.44;;;33.89;31.56
20616;BME280;10467;42.338;23.552;2022-08-01T12:25:26;90750.50;;;33.48;32.26
20616;BME280;10467;42.338;23.552;2022-08-01T12:27:52;90749.72;;;33.56;33.00
20616;BME280;10467;42.338;23.552;2022-08-01T12:30:20;90753.03;;;33.33;33.39
20616;BME280;10467;42.338;23.552;2022-08-01T12:32:51;90754.22;;;30.93;36.35
20616;BME280;10467;42.338;23.552;2022-08-01T12:35:18;90756.53;;;31.20;36.78
20616;BME280;10467;42.338;23.552;2022-08-01T12:37:52;90745.09;;;32.51;33.04
20616;BME280;10467;42.338;23.552;2022-08-01T12:40:21;90750.06;;;30.47;36.50
20616;BME280;10467;42.338;23.552;2022-08-01T12:43:01;90749.56;;;29.29;39.31
20616;BME280;10467;42.338;23.552;2022-08-01T12:45:34;90746.34;;;30.25;38.66
20616;BME280;10467;42.338;23.552;2022-08-01T12:48:01;90735.34;;;29.96;38.67
20616;BME280;10467;42.338;23.552;2022-08-01T12:50:30;90752.47;;;30.58;36.72
20616;BME280;10467;42.338;23.552;2022-08-01T12:52:59;90750.88;;;29.25;39.08
20616;BME280;10467;42.338;23.552;2022-08-01T12:55:26;90734.19;;;29.35;39.02
20616;BME280;10467;42.338;23.552;2022-08-01T13:00:31;90727.41;;;29.56;38.13
20616;BME280;10467;42.338;23.552;2022-08-01T13:03:05;90720.88;;;29.01;41.10
20616;BME280;10467;42.338;23.552;2022-08-01T13:05:53;90735.44;;;30.50;39.71
20616;BME280;10467;42.338;23.552;2022-08-01T13:08:30;90729.53;;;30.52;37.47
20616;BME280;10467;42.338;23.552;2022-08-01T13:11:04;90728.34;;;30.91;37.07
20616;BME280;10467;42.338;23.552;2022-08-01T13:13:42;90743.50;;;28.69;40.35
20616;BME280;10467;42.338;23.552;2022-08-01T13:16:09;90729.13;;;28.29;41.14
20616;BME280;10467;42.338;23.552;2022-08-01T13:18:35;90728.94;;;29.25;39.61
20616;BME280;10467;42.338;23.552;2022-08-01T13:21:22;90734.78;;;30.04;39.14
20616;BME280;10467;42.338;23.552;2022-08-01T13:24:12;90734.34;;;29.12;39.54
20616;BME280;10467;42.338;23.552;2022-08-01T13:26:46;90735.97;;;29.09;40.82
20616;BME280;10467;42.338;23.552;2022-08-01T13:29:14;90735.72;;;29.52;39.48
20616;BME280;10467;42.338;23.552;2022-08-01T13:31:41;90732.72;;;29.47;39.38
20616;BME280;10467;42.338;23.552;2022-08-01T13:34:07;90733.59;;;29.89;38.94